KVIH/VIH METAR and TAF weather

Enter ICAO airport designator
Station Type Date Time Source
KVIH METAR 2022/11/30 22:53 UTC NOAA

KVIH 302253Z AUTO 29005KT 10SM CLR 01/M12 A3038 RMK AO2 SLP301 T00061122


Station Type Date Time Source
KVIH Decoded METAR 2022/11/30 22:53 UTC NOAA

ROLLA/VICHY ROLLA NATIONAL, MO, United States (KVIH) 38-08N 91-46W 333M
Nov 30, 2022 - 05:53 PM EST / 2022.11.30 2253 UTC
Wind: from the WNW (290 degrees) at 6 MPH (5 KT):0
Visibility: 10 mile(s):0
Sky conditions: clear
Temperature: 33.1 F (0.6 C)
Windchill: 28 F (-2 C):1
Dew Point: 10.0 F (-12.2 C)
Relative Humidity: 37%
Pressure (altimeter): 30.38 in. Hg (1028 hPa)
ob: KVIH 302253Z AUTO 29005KT 10SM CLR 01/M12 A3038 RMK AO2 SLP301 T00061122
cycle: 23

Station Type Date Time Source
KVIH TAF UTC NOAA

Error!

Example: see airport list